sensor_id;sensor_type;location;lat;lon;timestamp;P1;durP1;ratioP1;P2;durP2;ratioP2
32365;SDS011;18837;46.832;16.838;2023-04-24T00:00:25;3.53;;;3.23;;
32365;SDS011;18837;46.832;16.838;2023-04-24T00:02:50;3.30;;;3.00;;
32365;SDS011;18837;46.832;16.838;2023-04-24T00:05:16;3.10;;;2.80;;
32365;SDS011;18837;46.832;16.838;2023-04-24T00:07:43;3.00;;;2.67;;
32365;SDS011;18837;46.832;16.838;2023-04-24T00:10:10;3.10;;;2.80;;
32365;SDS011;18837;46.832;16.838;2023-04-24T00:12:37;3.70;;;3.10;;
32365;SDS011;18837;46.832;16.838;2023-04-24T00:15:03;3.13;;;2.83;;
32365;SDS011;18837;46.832;16.838;2023-04-24T00:17:29;3.23;;;2.97;;
32365;SDS011;18837;46.832;16.838;2023-04-24T00:19:55;3.67;;;3.37;;
32365;SDS011;18837;46.832;16.838;2023-04-24T00:22:27;3.77;;;3.47;;
32365;SDS011;18837;46.832;16.838;2023-04-24T00:24:53;3.50;;;3.20;;
32365;SDS011;18837;46.832;16.838;2023-04-24T00:27:19;3.10;;;2.80;;
32365;SDS011;18837;46.832;16.838;2023-04-24T00:29:45;3.70;;;3.10;;
32365;SDS011;18837;46.832;16.838;2023-04-24T00:32:11;3.70;;;3.20;;
32365;SDS011;18837;46.832;16.838;2023-04-24T00:34:37;3.50;;;3.20;;
32365;SDS011;18837;46.832;16.838;2023-04-24T00:37:03;3.80;;;3.23;;
32365;SDS011;18837;46.832;16.838;2023-04-24T00:39:29;3.57;;;3.10;;
32365;SDS011;18837;46.832;16.838;2023-04-24T00:41:55;3.87;;;3.57;;
32365;SDS011;18837;46.832;16.838;2023-04-24T00:44:21;4.07;;;3.10;;
32365;SDS011;18837;46.832;16.838;2023-04-24T00:46:47;3.50;;;3.20;;
32365;SDS011;18837;46.832;16.838;2023-04-24T00:49:25;3.43;;;3.13;;
32365;SDS011;18837;46.832;16.838;2023-04-24T00:51:52;3.40;;;3.10;;
32365;SDS011;18837;46.832;16.838;2023-04-24T00:54:18;3.43;;;3.13;;
32365;SDS011;18837;46.832;16.838;2023-04-24T00:56:44;3.67;;;3.33;;
32365;SDS011;18837;46.832;16.838;2023-04-24T00:59:11;3.00;;;2.80;;
32365;SDS011;18837;46.832;16.838;2023-04-24T01:01:38;3.13;;;2.83;;
32365;SDS011;18837;46.832;16.838;2023-04-24T01:04:07;3.17;;;2.87;;
32365;SDS011;18837;46.832;16.838;2023-04-24T01:06:35;3.53;;;3.23;;
32365;SDS011;18837;46.832;16.838;2023-04-24T01:09:06;3.10;;;2.80;;
32365;SDS011;18837;46.832;16.838;2023-04-24T01:11:36;3.50;;;3.20;;
32365;SDS011;18837;46.832;16.838;2023-04-24T01:14:02;3.73;;;3.07;;
32365;SDS011;18837;46.832;16.838;2023-04-24T01:16:29;3.00;;;2.80;;
32365;SDS011;18837;46.832;16.838;2023-04-24T01:18:55;3.10;;;2.90;;
32365;SDS011;18837;46.832;16.838;2023-04-24T01:21:20;3.50;;;3.20;;
32365;SDS011;18837;46.832;16.838;2023-04-24T01:23:48;3.33;;;2.90;;
32365;SDS011;18837;46.832;16.838;2023-04-24T01:26:15;3.70;;;3.27;;
32365;SDS011;18837;46.832;16.838;2023-04-24T01:28:42;3.50;;;3.20;;
32365;SDS011;18837;46.832;16.838;2023-04-24T01:31:08;3.50;;;3.20;;
32365;SDS011;18837;46.832;16.838;2023-04-24T01:33:34;3.93;;;2.73;;
32365;SDS011;18837;46.832;16.838;2023-04-24T01:35:59;4.70;;;3.40;;
32365;SDS011;18837;46.832;16.838;2023-04-24T01:38:25;3.40;;;3.10;;
32365;SDS011;18837;46.832;16.838;2023-04-24T01:40:51;3.33;;;3.03;;
32365;SDS011;18837;46.832;16.838;2023-04-24T01:43:18;3.27;;;2.97;;
32365;SDS011;18837;46.832;16.838;2023-04-24T01:45:44;3.90;;;3.10;;
32365;SDS011;18837;46.832;16.838;2023-04-24T01:48:11;2.80;;;2.60;;
32365;SDS011;18837;46.832;16.838;2023-04-24T01:50:37;3.10;;;2.80;;
32365;SDS011;18837;46.832;16.838;2023-04-24T01:53:03;3.20;;;2.50;;
32365;SDS011;18837;46.832;16.838;2023-04-24T01:55:29;3.23;;;2.93;;
32365;SDS011;18837;46.832;16.838;2023-04-24T01:57:55;3.17;;;2.87;;
32365;SDS011;18837;46.832;16.838;2023-04-24T02:00:22;3.20;;;2.90;;
32365;SDS011;18837;46.832;16.838;2023-04-24T02:02:48;3.30;;;3.00;;
32365;SDS011;18837;46.832;16.838;2023-04-24T02:05:16;3.10;;;2.90;;
32365;SDS011;18837;46.832;16.838;2023-04-24T02:07:41;3.33;;;3.00;;
32365;SDS011;18837;46.832;16.838;2023-04-24T02:10:07;3.07;;;2.80;;
32365;SDS011;18837;46.832;16.838;2023-04-24T02:12:34;3.07;;;2.83;;
32365;SDS011;18837;46.832;16.838;2023-04-24T02:15:00;3.83;;;3.27;;
32365;SDS011;18837;46.832;16.838;2023-04-24T02:17:26;3.00;;;2.80;;
32365;SDS011;18837;46.832;16.838;2023-04-24T02:19:52;2.93;;;2.70;;
32365;SDS011;18837;46.832;16.838;2023-04-24T02:22:18;3.13;;;2.83;;
32365;SDS011;18837;46.832;16.838;2023-04-24T02:24:44;3.10;;;2.70;;
32365;SDS011;18837;46.832;16.838;2023-04-24T02:27:10;3.10;;;2.80;;
32365;SDS011;18837;46.832;16.838;2023-04-24T02:29:36;3.57;;;3.27;;
32365;SDS011;18837;46.832;16.838;2023-04-24T02:32:02;3.27;;;2.97;;
32365;SDS011;18837;46.832;16.838;2023-04-24T02:34:28;2.87;;;2.67;;
32365;SDS011;18837;46.832;16.838;2023-04-24T02:36:54;3.40;;;3.10;;
32365;SDS011;18837;46.832;16.838;2023-04-24T02:39:19;4.73;;;2.77;;
32365;SDS011;18837;46.832;16.838;2023-04-24T02:41:45;3.33;;;2.90;;
32365;SDS011;18837;46.832;16.838;2023-04-24T02:44:11;3.40;;;3.10;;
32365;SDS011;18837;46.832;16.838;2023-04-24T02:46:37;3.37;;;2.90;;
32365;SDS011;18837;46.832;16.838;2023-04-24T02:49:06;3.20;;;2.90;;
32365;SDS011;18837;46.832;16.838;2023-04-24T02:51:31;3.57;;;3.27;;
32365;SDS011;18837;46.832;16.838;2023-04-24T02:53:57;3.40;;;3.10;;
32365;SDS011;18837;46.832;16.838;2023-04-24T02:56:23;3.00;;;2.70;;
32365;SDS011;18837;46.832;16.838;2023-04-24T02:58:49;3.73;;;3.17;;
32365;SDS011;18837;46.832;16.838;2023-04-24T03:01:15;2.90;;;2.70;;
32365;SDS011;18837;46.832;16.838;2023-04-24T03:03:40;3.30;;;3.00;;
32365;SDS011;18837;46.832;16.838;2023-04-24T03:06:06;3.20;;;2.90;;
32365;SDS011;18837;46.832;16.838;2023-04-24T03:08:33;3.57;;;2.67;;
32365;SDS011;18837;46.832;16.838;2023-04-24T03:10:59;3.43;;;2.90;;
32365;SDS011;18837;46.832;16.838;2023-04-24T03:13:25;3.20;;;2.90;;
32365;SDS011;18837;46.832;16.838;2023-04-24T03:15:50;3.60;;;3.30;;
32365;SDS011;18837;46.832;16.838;2023-04-24T03:18:16;3.23;;;2.93;;
32365;SDS011;18837;46.832;16.838;2023-04-24T03:20:42;3.07;;;2.87;;
32365;SDS011;18837;46.832;16.838;2023-04-24T03:23:11;2.80;;;2.60;;
32365;SDS011;18837;46.832;16.838;2023-04-24T03:25:37;3.57;;;2.60;;
32365;SDS011;18837;46.832;16.838;2023-04-24T03:28:02;2.93;;;2.63;;
32365;SDS011;18837;46.832;16.838;2023-04-24T03:30:28;2.87;;;2.60;;
32365;SDS011;18837;46.832;16.838;2023-04-24T03:32:54;3.10;;;2.80;;
32365;SDS011;18837;46.832;16.838;2023-04-24T03:35:20;3.20;;;2.90;;
32365;SDS011;18837;46.832;16.838;2023-04-24T03:37:47;3.10;;;2.80;;
32365;SDS011;18837;46.832;16.838;2023-04-24T03:40:12;2.57;;;2.27;;
32365;SDS011;18837;46.832;16.838;2023-04-24T03:42:38;3.40;;;3.10;;
32365;SDS011;18837;46.832;16.838;2023-04-24T03:45:04;3.00;;;2.70;;
32365;SDS011;18837;46.832;16.838;2023-04-24T03:47:31;3.33;;;2.90;;
32365;SDS011;18837;46.832;16.838;2023-04-24T03:49:57;3.10;;;2.80;;
32365;SDS011;18837;46.832;16.838;2023-04-24T03:52:23;5.60;;;2.70;;
32365;SDS011;18837;46.832;16.838;2023-04-24T03:54:48;2.90;;;2.70;;
32365;SDS011;18837;46.832;16.838;2023-04-24T03:57:14;2.90;;;2.70;;
32365;SDS011;18837;46.832;16.838;2023-04-24T03:59:40;3.10;;;2.90;;
32365;SDS011;18837;46.832;16.838;2023-04-24T04:02:06;3.27;;;3.03;;
32365;SDS011;18837;46.832;16.838;2023-04-24T04:04:32;3.07;;;2.77;;
32365;SDS011;18837;46.832;16.838;2023-04-24T04:06:58;2.83;;;2.63;;
32365;SDS011;18837;46.832;16.838;2023-04-24T04:09:26;3.03;;;2.73;;
32365;SDS011;18837;46.832;16.838;2023-04-24T04:11:52;3.00;;;2.70;;
32365;SDS011;18837;46.832;16.838;2023-04-24T04:14:18;3.10;;;2.90;;
32365;SDS011;18837;46.832;16.838;2023-04-24T04:16:44;2.70;;;2.50;;
32365;SDS011;18837;46.832;16.838;2023-04-24T04:19:10;2.70;;;2.50;;
32365;SDS011;18837;46.832;16.838;2023-04-24T04:21:36;3.20;;;2.90;;
32365;SDS011;18837;46.832;16.838;2023-04-24T04:24:01;2.80;;;2.60;;
32365;SDS011;18837;46.832;16.838;2023-04-24T04:26:27;2.97;;;2.60;;
32365;SDS011;18837;46.832;16.838;2023-04-24T04:28:53;2.67;;;2.43;;
32365;SDS011;18837;46.832;16.838;2023-04-24T04:31:19;3.50;;;2.97;;
32365;SDS011;18837;46.832;16.838;2023-04-24T04:33:46;3.07;;;2.70;;
32365;SDS011;18837;46.832;16.838;2023-04-24T04:36:11;2.83;;;2.63;;
32365;SDS011;18837;46.832;16.838;2023-04-24T04:38:37;3.13;;;2.90;;
32365;SDS011;18837;46.832;16.838;2023-04-24T04:41:05;2.70;;;2.50;;
32365;SDS011;18837;46.832;16.838;2023-04-24T04:43:32;3.57;;;3.27;;
32365;SDS011;18837;46.832;16.838;2023-04-24T04:45:59;3.60;;;2.50;;
32365;SDS011;18837;46.832;16.838;2023-04-24T04:48:26;2.80;;;2.60;;
32365;SDS011;18837;46.832;16.838;2023-04-24T04:50:52;2.50;;;2.30;;
32365;SDS011;18837;46.832;16.838;2023-04-24T04:53:18;3.10;;;2.70;;
32365;SDS011;18837;46.832;16.838;2023-04-24T04:55:43;2.80;;;2.60;;
32365;SDS011;18837;46.832;16.838;2023-04-24T04:58:09;3.17;;;2.87;;
32365;SDS011;18837;46.832;16.838;2023-04-24T05:00:35;2.90;;;2.60;;
32365;SDS011;18837;46.832;16.838;2023-04-24T05:03:02;2.80;;;2.60;;
32365;SDS011;18837;46.832;16.838;2023-04-24T05:05:28;2.87;;;2.60;;
32365;SDS011;18837;46.832;16.838;2023-04-24T05:07:54;3.33;;;2.87;;
32365;SDS011;18837;46.832;16.838;2023-04-24T05:10:20;3.77;;;2.63;;
32365;SDS011;18837;46.832;16.838;2023-04-24T05:12:46;2.93;;;2.73;;
32365;SDS011;18837;46.832;16.838;2023-04-24T05:15:12;3.10;;;2.80;;
32365;SDS011;18837;46.832;16.838;2023-04-24T05:17:38;3.10;;;2.77;;
32365;SDS011;18837;46.832;16.838;2023-04-24T05:20:05;2.60;;;2.40;;
32365;SDS011;18837;46.832;16.838;2023-04-24T05:22:34;2.50;;;2.30;;
32365;SDS011;18837;46.832;16.838;2023-04-24T05:25:01;3.23;;;2.87;;
32365;SDS011;18837;46.832;16.838;2023-04-24T05:27:27;3.00;;;2.63;;
32365;SDS011;18837;46.832;16.838;2023-04-24T05:29:54;3.10;;;2.70;;
32365;SDS011;18837;46.832;16.838;2023-04-24T05:32:19;2.30;;;2.10;;
32365;SDS011;18837;46.832;16.838;2023-04-24T05:34:45;2.87;;;2.60;;
32365;SDS011;18837;46.832;16.838;2023-04-24T05:37:11;2.80;;;2.60;;
32365;SDS011;18837;46.832;16.838;2023-04-24T05:39:37;3.03;;;2.50;;
32365;SDS011;18837;46.832;16.838;2023-04-24T05:42:03;2.93;;;2.63;;
32365;SDS011;18837;46.832;16.838;2023-04-24T05:44:30;2.60;;;2.40;;
32365;SDS011;18837;46.832;16.838;2023-04-24T05:46:55;3.17;;;2.97;;
32365;SDS011;18837;46.832;16.838;2023-04-24T05:49:22;2.63;;;2.43;;
32365;SDS011;18837;46.832;16.838;2023-04-24T05:51:47;3.13;;;2.93;;
32365;SDS011;18837;46.832;16.838;2023-04-24T05:54:13;2.83;;;2.63;;
32365;SDS011;18837;46.832;16.838;2023-04-24T05:56:39;3.30;;;3.00;;
32365;SDS011;18837;46.832;16.838;2023-04-24T05:59:06;2.87;;;2.60;;
32365;SDS011;18837;46.832;16.838;2023-04-24T06:01:32;2.93;;;2.73;;
32365;SDS011;18837;46.832;16.838;2023-04-24T06:03:58;2.90;;;2.70;;
32365;SDS011;18837;46.832;16.838;2023-04-24T06:06:24;2.83;;;2.50;;
32365;SDS011;18837;46.832;16.838;2023-04-24T06:08:50;3.00;;;2.70;;
32365;SDS011;18837;46.832;16.838;2023-04-24T06:11:16;2.77;;;2.47;;
32365;SDS011;18837;46.832;16.838;2023-04-24T06:13:42;4.80;;;2.90;;
32365;SDS011;18837;46.832;16.838;2023-04-24T06:16:08;2.80;;;2.60;;
32365;SDS011;18837;46.832;16.838;2023-04-24T06:18:34;4.20;;;2.80;;
32365;SDS011;18837;46.832;16.838;2023-04-24T06:21:00;3.17;;;2.70;;
32365;SDS011;18837;46.832;16.838;2023-04-24T06:23:26;2.77;;;2.57;;
32365;SDS011;18837;46.832;16.838;2023-04-24T06:25:52;3.97;;;3.03;;
32365;SDS011;18837;46.832;16.838;2023-04-24T06:28:17;2.87;;;2.57;;
32365;SDS011;18837;46.832;16.838;2023-04-24T06:30:43;2.87;;;2.63;;
32365;SDS011;18837;46.832;16.838;2023-04-24T06:33:09;3.33;;;3.03;;
32365;SDS011;18837;46.832;16.838;2023-04-24T06:35:35;3.87;;;3.30;;
32365;SDS011;18837;46.832;16.838;2023-04-24T06:38:03;3.33;;;2.50;;
32365;SDS011;18837;46.832;16.838;2023-04-24T06:40:29;2.90;;;2.70;;
32365;SDS011;18837;46.832;16.838;2023-04-24T06:42:55;4.20;;;3.20;;
32365;SDS011;18837;46.832;16.838;2023-04-24T06:45:22;4.70;;;3.10;;
32365;SDS011;18837;46.832;16.838;2023-04-24T06:47:48;4.97;;;3.20;;
32365;SDS011;18837;46.832;16.838;2023-04-24T06:50:14;3.17;;;2.60;;
32365;SDS011;18837;46.832;16.838;2023-04-24T06:52:40;6.17;;;3.13;;
32365;SDS011;18837;46.832;16.838;2023-04-24T06:55:06;5.83;;;3.10;;
32365;SDS011;18837;46.832;16.838;2023-04-24T06:57:32;3.80;;;3.40;;
32365;SDS011;18837;46.832;16.838;2023-04-24T06:59:58;3.47;;;3.17;;
32365;SDS011;18837;46.832;16.838;2023-04-24T07:02:24;3.37;;;3.07;;
32365;SDS011;18837;46.832;16.838;2023-04-24T07:04:50;3.47;;;3.00;;
32365;SDS011;18837;46.832;16.838;2023-04-24T07:07:16;5.07;;;3.13;;
32365;SDS011;18837;46.832;16.838;2023-04-24T07:09:42;3.80;;;3.33;;
32365;SDS011;18837;46.832;16.838;2023-04-24T07:12:09;3.50;;;3.17;;
32365;SDS011;18837;46.832;16.838;2023-04-24T07:14:38;5.37;;;3.13;;
32365;SDS011;18837;46.832;16.838;2023-04-24T07:17:04;4.53;;;2.97;;
32365;SDS011;18837;46.832;16.838;2023-04-24T07:19:31;3.53;;;2.93;;
32365;SDS011;18837;46.832;16.838;2023-04-24T07:22:03;3.10;;;2.77;;
32365;SDS011;18837;46.832;16.838;2023-04-24T07:24:28;4.60;;;3.20;;
32365;SDS011;18837;46.832;16.838;2023-04-24T07:26:57;3.43;;;3.13;;
32365;SDS011;18837;46.832;16.838;2023-04-24T07:29:22;8.60;;;6.47;;
32365;SDS011;18837;46.832;16.838;2023-04-24T07:31:48;10.57;;;6.53;;
32365;SDS011;18837;46.832;16.838;2023-04-24T07:34:14;7.30;;;4.90;;
32365;SDS011;18837;46.832;16.838;2023-04-24T07:36:40;6.97;;;4.77;;
32365;SDS011;18837;46.832;16.838;2023-04-24T07:39:06;7.77;;;4.20;;
32365;SDS011;18837;46.832;16.838;2023-04-24T07:41:33;6.00;;;4.40;;
32365;SDS011;18837;46.832;16.838;2023-04-24T07:43:59;10.57;;;7.20;;
32365;SDS011;18837;46.832;16.838;2023-04-24T07:46:25;9.67;;;7.33;;
32365;SDS011;18837;46.832;16.838;2023-04-24T07:48:52;7.77;;;5.37;;
32365;SDS011;18837;46.832;16.838;2023-04-24T07:51:19;5.67;;;4.20;;
32365;SDS011;18837;46.832;16.838;2023-04-24T07:53:45;5.47;;;4.53;;
32365;SDS011;18837;46.832;16.838;2023-04-24T07:56:11;5.93;;;4.30;;
32365;SDS011;18837;46.832;16.838;2023-04-24T07:58:37;5.73;;;3.93;;
32365;SDS011;18837;46.832;16.838;2023-04-24T08:01:03;6.73;;;4.73;;
32365;SDS011;18837;46.832;16.838;2023-04-24T08:03:28;7.17;;;4.67;;
32365;SDS011;18837;46.832;16.838;2023-04-24T08:05:54;5.07;;;4.20;;
32365;SDS011;18837;46.832;16.838;2023-04-24T08:08:21;6.60;;;4.80;;
32365;SDS011;18837;46.832;16.838;2023-04-24T08:10:47;7.50;;;4.50;;
32365;SDS011;18837;46.832;16.838;2023-04-24T08:13:13;4.63;;;4.23;;
32365;SDS011;18837;46.832;16.838;2023-04-24T08:15:39;5.10;;;4.20;;
32365;SDS011;18837;46.832;16.838;2023-04-24T08:18:05;4.77;;;4.00;;
32365;SDS011;18837;46.832;16.838;2023-04-24T08:20:31;5.50;;;4.20;;
32365;SDS011;18837;46.832;16.838;2023-04-24T08:22:57;4.33;;;3.90;;
32365;SDS011;18837;46.832;16.838;2023-04-24T08:25:23;5.73;;;4.30;;
32365;SDS011;18837;46.832;16.838;2023-04-24T08:27:50;5.90;;;3.83;;
32365;SDS011;18837;46.832;16.838;2023-04-24T08:30:16;4.33;;;3.93;;
32365;SDS011;18837;46.832;16.838;2023-04-24T08:32:42;4.20;;;3.77;;
32365;SDS011;18837;46.832;16.838;2023-04-24T08:35:08;5.90;;;4.17;;
32365;SDS011;18837;46.832;16.838;2023-04-24T08:37:34;4.90;;;4.40;;
32365;SDS011;18837;46.832;16.838;2023-04-24T08:40:01;3.97;;;3.57;;
32365;SDS011;18837;46.832;16.838;2023-04-24T08:42:33;5.03;;;3.50;;
32365;SDS011;18837;46.832;16.838;2023-04-24T08:45:02;5.67;;;3.67;;
32365;SDS011;18837;46.832;16.838;2023-04-24T08:47:28;4.83;;;3.60;;
32365;SDS011;18837;46.832;16.838;2023-04-24T08:49:56;3.53;;;3.23;;
32365;SDS011;18837;46.832;16.838;2023-04-24T08:52:25;4.67;;;2.90;;
32365;SDS011;18837;46.832;16.838;2023-04-24T08:54:51;3.33;;;3.03;;
32365;SDS011;18837;46.832;16.838;2023-04-24T08:57:18;4.93;;;3.40;;
32365;SDS011;18837;46.832;16.838;2023-04-24T08:59:44;3.77;;;3.40;;
32365;SDS011;18837;46.832;16.838;2023-04-24T09:02:11;3.50;;;3.20;;
32365;SDS011;18837;46.832;16.838;2023-04-24T09:04:38;4.00;;;3.60;;
32365;SDS011;18837;46.832;16.838;2023-04-24T09:07:06;4.13;;;3.50;;
32365;SDS011;18837;46.832;16.838;2023-04-24T09:09:33;3.70;;;3.40;;
32365;SDS011;18837;46.832;16.838;2023-04-24T09:12:01;3.60;;;3.30;;
32365;SDS011;18837;46.832;16.838;2023-04-24T09:14:28;4.83;;;3.80;;
32365;SDS011;18837;46.832;16.838;2023-04-24T09:16:56;4.30;;;3.90;;
32365;SDS011;18837;46.832;16.838;2023-04-24T09:19:22;4.07;;;3.70;;
32365;SDS011;18837;46.832;16.838;2023-04-24T09:21:48;4.10;;;3.70;;
32365;SDS011;18837;46.832;16.838;2023-04-24T09:24:15;4.07;;;3.67;;
32365;SDS011;18837;46.832;16.838;2023-04-24T09:26:47;3.90;;;3.50;;
32365;SDS011;18837;46.832;16.838;2023-04-24T09:29:17;4.27;;;3.57;;
32365;SDS011;18837;46.832;16.838;2023-04-24T09:31:44;3.80;;;3.23;;
32365;SDS011;18837;46.832;16.838;2023-04-24T09:34:10;4.07;;;3.23;;
32365;SDS011;18837;46.832;16.838;2023-04-24T09:36:37;4.70;;;3.47;;
32365;SDS011;18837;46.832;16.838;2023-04-24T09:39:07;4.33;;;3.23;;
32365;SDS011;18837;46.832;16.838;2023-04-24T09:44:21;3.90;;;3.03;;
32365;SDS011;18837;46.832;16.838;2023-04-24T09:46:50;3.77;;;3.13;;
32365;SDS011;18837;46.832;16.838;2023-04-24T09:49:24;4.90;;;3.60;;
32365;SDS011;18837;46.832;16.838;2023-04-24T09:51:52;3.90;;;3.40;;
32365;SDS011;18837;46.832;16.838;2023-04-24T09:54:28;4.00;;;3.30;;
32365;SDS011;18837;46.832;16.838;2023-04-24T09:56:54;3.37;;;3.07;;
32365;SDS011;18837;46.832;16.838;2023-04-24T09:59:21;4.70;;;3.60;;
32365;SDS011;18837;46.832;16.838;2023-04-24T10:01:47;4.10;;;3.57;;
32365;SDS011;18837;46.832;16.838;2023-04-24T10:06:44;4.50;;;3.70;;
32365;SDS011;18837;46.832;16.838;2023-04-24T10:09:10;3.50;;;3.20;;
32365;SDS011;18837;46.832;16.838;2023-04-24T10:11:40;5.27;;;3.50;;
32365;SDS011;18837;46.832;16.838;2023-04-24T10:14:09;6.03;;;4.00;;
32365;SDS011;18837;46.832;16.838;2023-04-24T10:16:37;4.17;;;3.10;;
32365;SDS011;18837;46.832;16.838;2023-04-24T10:19:05;6.00;;;3.37;;
32365;SDS011;18837;46.832;16.838;2023-04-24T10:21:32;4.10;;;3.70;;
32365;SDS011;18837;46.832;16.838;2023-04-24T10:26:30;3.83;;;3.30;;
32365;SDS011;18837;46.832;16.838;2023-04-24T10:28:57;3.50;;;3.20;;
32365;SDS011;18837;46.832;16.838;2023-04-24T10:31:23;4.07;;;3.17;;
32365;SDS011;18837;46.832;16.838;2023-04-24T10:33:51;4.27;;;2.90;;
32365;SDS011;18837;46.832;16.838;2023-04-24T10:36:18;5.43;;;3.37;;
32365;SDS011;18837;46.832;16.838;2023-04-24T10:38:48;5.20;;;3.13;;
32365;SDS011;18837;46.832;16.838;2023-04-24T10:41:15;3.87;;;3.37;;
32365;SDS011;18837;46.832;16.838;2023-04-24T10:43:48;3.50;;;3.20;;
32365;SDS011;18837;46.832;16.838;2023-04-24T10:46:29;5.83;;;3.23;;
32365;SDS011;18837;46.832;16.838;2023-04-24T10:48:55;4.10;;;2.97;;
32365;SDS011;18837;46.832;16.838;2023-04-24T10:51:23;4.70;;;3.30;;
32365;SDS011;18837;46.832;16.838;2023-04-24T10:53:51;4.57;;;3.40;;
32365;SDS011;18837;46.832;16.838;2023-04-24T10:56:17;5.23;;;3.60;;
32365;SDS011;18837;46.832;16.838;2023-04-24T11:01:32;5.03;;;3.40;;
32365;SDS011;18837;46.832;16.838;2023-04-24T11:04:01;3.50;;;3.10;;
32365;SDS011;18837;46.832;16.838;2023-04-24T11:06:28;3.90;;;3.50;;
32365;SDS011;18837;46.832;16.838;2023-04-24T11:11:31;5.30;;;3.30;;
32365;SDS011;18837;46.832;16.838;2023-04-24T11:14:07;4.10;;;3.50;;
32365;SDS011;18837;46.832;16.838;2023-04-24T11:19:17;5.93;;;3.80;;
32365;SDS011;18837;46.832;16.838;2023-04-24T11:22:04;3.43;;;3.00;;
32365;SDS011;18837;46.832;16.838;2023-04-24T11:24:39;3.83;;;3.03;;
32365;SDS011;18837;46.832;16.838;2023-04-24T11:32:34;3.57;;;3.03;;
32365;SDS011;18837;46.832;16.838;2023-04-24T11:35:04;7.73;;;3.10;;
32365;SDS011;18837;46.832;16.838;2023-04-24T11:37:48;8.13;;;3.33;;
32365;SDS011;18837;46.832;16.838;2023-04-24T11:40:15;7.27;;;4.03;;
32365;SDS011;18837;46.832;16.838;2023-04-24T11:42:46;5.47;;;3.30;;
32365;SDS011;18837;46.832;16.838;2023-04-24T11:45:13;4.50;;;3.00;;
32365;SDS011;18837;46.832;16.838;2023-04-24T11:47:41;6.17;;;3.47;;
32365;SDS011;18837;46.832;16.838;2023-04-24T11:50:09;4.60;;;2.93;;
32365;SDS011;18837;46.832;16.838;2023-04-24T11:52:39;3.77;;;2.90;;
32365;SDS011;18837;46.832;16.838;2023-04-24T11:57:50;8.37;;;3.80;;
32365;SDS011;18837;46.832;16.838;2023-04-24T12:00:21;3.43;;;2.97;;
32365;SDS011;18837;46.832;16.838;2023-04-24T12:03:02;5.57;;;3.07;;
32365;SDS011;18837;46.832;16.838;2023-04-24T12:05:32;5.50;;;3.83;;
32365;SDS011;18837;46.832;16.838;2023-04-24T12:07:59;5.07;;;3.77;;
32365;SDS011;18837;46.832;16.838;2023-04-24T12:10:27;5.90;;;3.30;;
32365;SDS011;18837;46.832;16.838;2023-04-24T12:12:55;4.27;;;3.30;;
32365;SDS011;18837;46.832;16.838;2023-04-24T12:15:22;6.83;;;3.33;;
32365;SDS011;18837;46.832;16.838;2023-04-24T12:17:52;5.20;;;3.43;;
32365;SDS011;18837;46.832;16.838;2023-04-24T12:20:23;3.90;;;3.50;;
32365;SDS011;18837;46.832;16.838;2023-04-24T12:22:53;4.40;;;3.40;;
32365;SDS011;18837;46.832;16.838;2023-04-24T12:25:27;3.63;;;3.23;;
32365;SDS011;18837;46.832;16.838;2023-04-24T12:27:55;3.93;;;3.20;;
32365;SDS011;18837;46.832;16.838;2023-04-24T12:30:46;7.43;;;3.57;;
32365;SDS011;18837;46.832;16.838;2023-04-24T12:33:19;4.03;;;3.57;;
32365;SDS011;18837;46.832;16.838;2023-04-24T12:35:47;5.13;;;3.23;;
32365;SDS011;18837;46.832;16.838;2023-04-24T12:38:15;4.80;;;3.70;;
32365;SDS011;18837;46.832;16.838;2023-04-24T12:40:41;4.80;;;3.10;;
32365;SDS011;18837;46.832;16.838;2023-04-24T12:45:40;4.37;;;3.10;;
32365;SDS011;18837;46.832;16.838;2023-04-24T12:48:06;4.30;;;3.47;;
32365;SDS011;18837;46.832;16.838;2023-04-24T12:50:32;6.97;;;3.80;;
32365;SDS011;18837;46.832;16.838;2023-04-24T12:52:58;3.93;;;3.33;;
32365;SDS011;18837;46.832;16.838;2023-04-24T12:55:24;4.60;;;3.10;;
32365;SDS011;18837;46.832;16.838;2023-04-24T12:57:50;4.17;;;3.20;;
32365;SDS011;18837;46.832;16.838;2023-04-24T13:00:17;4.10;;;3.30;;
32365;SDS011;18837;46.832;16.838;2023-04-24T13:02:43;4.13;;;3.00;;
32365;SDS011;18837;46.832;16.838;2023-04-24T13:05:10;4.27;;;2.77;;
32365;SDS011;18837;46.832;16.838;2023-04-24T13:07:36;3.70;;;3.27;;
32365;SDS011;18837;46.832;16.838;2023-04-24T13:10:02;3.87;;;3.17;;
32365;SDS011;18837;46.832;16.838;2023-04-24T13:12:28;4.60;;;3.67;;
32365;SDS011;18837;46.832;16.838;2023-04-24T13:14:54;3.30;;;2.90;;
32365;SDS011;18837;46.832;16.838;2023-04-24T13:17:21;5.23;;;3.27;;
32365;SDS011;18837;46.832;16.838;2023-04-24T13:19:49;3.70;;;3.20;;
32365;SDS011;18837;46.832;16.838;2023-04-24T13:22:16;4.70;;;3.53;;
32365;SDS011;18837;46.832;16.838;2023-04-24T13:24:44;3.57;;;3.10;;
32365;SDS011;18837;46.832;16.838;2023-04-24T13:27:10;3.23;;;2.93;;
32365;SDS011;18837;46.832;16.838;2023-04-24T13:29:36;3.50;;;3.20;;
32365;SDS011;18837;46.832;16.838;2023-04-24T13:32:02;3.70;;;3.40;;
32365;SDS011;18837;46.832;16.838;2023-04-24T13:34:28;3.20;;;2.90;;
32365;SDS011;18837;46.832;16.838;2023-04-24T13:36:54;3.67;;;3.10;;
32365;SDS011;18837;46.832;16.838;2023-04-24T13:39:22;3.80;;;3.40;;
32365;SDS011;18837;46.832;16.838;2023-04-24T13:41:49;4.57;;;3.40;;
32365;SDS011;18837;46.832;16.838;2023-04-24T13:44:15;3.50;;;3.20;;
32365;SDS011;18837;46.832;16.838;2023-04-24T13:46:42;5.60;;;3.90;;
32365;SDS011;18837;46.832;16.838;2023-04-24T13:49:10;3.63;;;3.20;;
32365;SDS011;18837;46.832;16.838;2023-04-24T13:51:37;3.97;;;3.57;;
32365;SDS011;18837;46.832;16.838;2023-04-24T13:54:03;3.47;;;3.07;;
32365;SDS011;18837;46.832;16.838;2023-04-24T13:56:29;3.53;;;3.23;;
32365;SDS011;18837;46.832;16.838;2023-04-24T13:58:58;3.27;;;2.90;;
32365;SDS011;18837;46.832;16.838;2023-04-24T14:01:24;3.90;;;3.57;;
32365;SDS011;18837;46.832;16.838;2023-04-24T14:03:50;4.03;;;3.63;;
32365;SDS011;18837;46.832;16.838;2023-04-24T14:06:17;5.23;;;3.80;;
32365;SDS011;18837;46.832;16.838;2023-04-24T14:08:43;4.17;;;3.77;;
32365;SDS011;18837;46.832;16.838;2023-04-24T14:11:09;3.80;;;3.40;;
32365;SDS011;18837;46.832;16.838;2023-04-24T14:13:36;3.90;;;3.50;;
32365;SDS011;18837;46.832;16.838;2023-04-24T14:16:02;4.80;;;3.07;;
32365;SDS011;18837;46.832;16.838;2023-04-24T14:18:29;3.60;;;3.30;;
32365;SDS011;18837;46.832;16.838;2023-04-24T14:20:55;3.30;;;3.00;;
32365;SDS011;18837;46.832;16.838;2023-04-24T14:23:20;6.43;;;3.00;;
32365;SDS011;18837;46.832;16.838;2023-04-24T14:25:46;3.13;;;2.83;;
32365;SDS011;18837;46.832;16.838;2023-04-24T14:28:17;2.73;;;2.47;;
32365;SDS011;18837;46.832;16.838;2023-04-24T14:30:46;2.80;;;2.40;;
32365;SDS011;18837;46.832;16.838;2023-04-24T14:33:13;2.60;;;2.40;;
32365;SDS011;18837;46.832;16.838;2023-04-24T14:35:40;3.20;;;2.00;;
32365;SDS011;18837;46.832;16.838;2023-04-24T14:38:07;2.30;;;2.10;;
32365;SDS011;18837;46.832;16.838;2023-04-24T14:40:33;2.40;;;2.20;;
32365;SDS011;18837;46.832;16.838;2023-04-24T14:42:59;2.27;;;2.03;;
32365;SDS011;18837;46.832;16.838;2023-04-24T14:45:25;2.53;;;2.20;;
32365;SDS011;18837;46.832;16.838;2023-04-24T14:47:57;2.87;;;2.20;;
32365;SDS011;18837;46.832;16.838;2023-04-24T14:50:23;2.53;;;2.13;;
32365;SDS011;18837;46.832;16.838;2023-04-24T14:52:52;2.73;;;1.90;;
32365;SDS011;18837;46.832;16.838;2023-04-24T14:55:20;1.80;;;1.70;;
32365;SDS011;18837;46.832;16.838;2023-04-24T14:57:46;3.10;;;1.60;;